sensor_id;sensor_type;location;lat;lon;timestamp;temperature;humidity
51839;DHT22;37886;53.174;6.368;2023-07-08T00:00:53;16.20;99.90
51839;DHT22;37886;53.174;6.368;2023-07-08T00:03:19;16.20;99.90
51839;DHT22;37886;53.174;6.368;2023-07-08T00:05:52;16.20;99.90
51839;DHT22;37886;53.174;6.368;2023-07-08T00:08:20;16.20;99.90
51839;DHT22;37886;53.174;6.368;2023-07-08T00:10:47;16.20;99.90
51839;DHT22;37886;53.174;6.368;2023-07-08T00:13:13;16.10;99.90
51839;DHT22;37886;53.174;6.368;2023-07-08T00:15:39;16.10;99.90
51839;DHT22;37886;53.174;6.368;2023-07-08T00:18:12;16.10;99.90
51839;DHT22;37886;53.174;6.368;2023-07-08T00:20:41;16.00;99.90
51839;DHT22;37886;53.174;6.368;2023-07-08T00:23:09;16.00;99.90
51839;DHT22;37886;53.174;6.368;2023-07-08T00:25:34;16.00;99.90
51839;DHT22;37886;53.174;6.368;2023-07-08T00:28:01;16.00;99.90
51839;DHT22;37886;53.174;6.368;2023-07-08T00:30:30;16.00;99.90
51839;DHT22;37886;53.174;6.368;2023-07-08T00:32:57;15.90;99.90
51839;DHT22;37886;53.174;6.368;2023-07-08T00:35:33;15.90;99.90
51839;DHT22;37886;53.174;6.368;2023-07-08T00:38:00;15.80;99.90
51839;DHT22;37886;53.174;6.368;2023-07-08T00:40:30;15.80;99.90
51839;DHT22;37886;53.174;6.368;2023-07-08T00:42:59;15.80;99.90
51839;DHT22;37886;53.174;6.368;2023-07-08T00:45:38;15.80;99.90
51839;DHT22;37886;53.174;6.368;2023-07-08T00:50:37;15.80;99.90
51839;DHT22;37886;53.174;6.368;2023-07-08T00:53:36;15.70;99.90
51839;DHT22;37886;53.174;6.368;2023-07-08T00:56:22;15.70;99.90
51839;DHT22;37886;53.174;6.368;2023-07-08T00:59:18;15.70;99.90
51839;DHT22;37886;53.174;6.368;2023-07-08T01:01:44;15.70;99.90
51839;DHT22;37886;53.174;6.368;2023-07-08T01:04:25;15.60;99.90
51839;DHT22;37886;53.174;6.368;2023-07-08T01:06:56;15.60;99.90
51839;DHT22;37886;53.174;6.368;2023-07-08T01:09:30;15.60;99.90
51839;DHT22;37886;53.174;6.368;2023-07-08T01:11:58;15.60;99.90
51839;DHT22;37886;53.174;6.368;2023-07-08T01:14:27;15.60;99.90
51839;DHT22;37886;53.174;6.368;2023-07-08T01:16:57;15.50;99.90
51839;DHT22;37886;53.174;6.368;2023-07-08T01:19:23;15.50;99.90
51839;DHT22;37886;53.174;6.368;2023-07-08T01:21:58;15.50;99.90
51839;DHT22;37886;53.174;6.368;2023-07-08T01:24:28;15.40;99.90
51839;DHT22;37886;53.174;6.368;2023-07-08T01:26:56;15.50;99.90
51839;DHT22;37886;53.174;6.368;2023-07-08T01:29:22;15.50;99.90
51839;DHT22;37886;53.174;6.368;2023-07-08T01:31:48;15.40;99.90
51839;DHT22;37886;53.174;6.368;2023-07-08T01:34:18;15.50;99.90
51839;DHT22;37886;53.174;6.368;2023-07-08T01:36:54;15.50;99.90
51839;DHT22;37886;53.174;6.368;2023-07-08T01:39:23;15.40;99.90
51839;DHT22;37886;53.174;6.368;2023-07-08T01:41:49;15.40;99.90
51839;DHT22;37886;53.174;6.368;2023-07-08T01:44:28;15.40;99.90
51839;DHT22;37886;53.174;6.368;2023-07-08T01:46:57;15.40;99.90
51839;DHT22;37886;53.174;6.368;2023-07-08T01:49:23;15.40;99.90
51839;DHT22;37886;53.174;6.368;2023-07-08T01:51:50;15.30;99.90
51839;DHT22;37886;53.174;6.368;2023-07-08T01:54:16;15.30;99.90
51839;DHT22;37886;53.174;6.368;2023-07-08T01:56:41;15.30;99.90
51839;DHT22;37886;53.174;6.368;2023-07-08T01:59:07;15.30;99.90
51839;DHT22;37886;53.174;6.368;2023-07-08T02:01:33;15.30;99.90
51839;DHT22;37886;53.174;6.368;2023-07-08T02:03:59;15.30;99.90
51839;DHT22;37886;53.174;6.368;2023-07-08T02:06:25;15.30;99.90
51839;DHT22;37886;53.174;6.368;2023-07-08T02:08:51;15.40;99.90
51839;DHT22;37886;53.174;6.368;2023-07-08T02:11:17;15.30;99.90
51839;DHT22;37886;53.174;6.368;2023-07-08T02:13:42;15.30;99.90
51839;DHT22;37886;53.174;6.368;2023-07-08T02:16:08;15.30;99.90
51839;DHT22;37886;53.174;6.368;2023-07-08T02:18:34;15.20;99.90
51839;DHT22;37886;53.174;6.368;2023-07-08T02:21:00;15.30;99.90
51839;DHT22;37886;53.174;6.368;2023-07-08T02:23:26;15.30;99.90
51839;DHT22;37886;53.174;6.368;2023-07-08T02:25:53;15.30;99.90
51839;DHT22;37886;53.174;6.368;2023-07-08T02:28:19;15.30;99.90
51839;DHT22;37886;53.174;6.368;2023-07-08T02:30:45;15.20;99.90
51839;DHT22;37886;53.174;6.368;2023-07-08T02:33:14;15.20;99.90
51839;DHT22;37886;53.174;6.368;2023-07-08T02:35:43;15.20;99.90
51839;DHT22;37886;53.174;6.368;2023-07-08T02:38:09;15.20;99.90
51839;DHT22;37886;53.174;6.368;2023-07-08T02:40:35;15.10;99.90
51839;DHT22;37886;53.174;6.368;2023-07-08T02:43:01;15.20;99.90
51839;DHT22;37886;53.174;6.368;2023-07-08T02:45:27;15.10;99.90
51839;DHT22;37886;53.174;6.368;2023-07-08T02:47:52;15.10;99.90
51839;DHT22;37886;53.174;6.368;2023-07-08T02:50:18;15.10;99.90
51839;DHT22;37886;53.174;6.368;2023-07-08T02:52:44;15.00;99.90
51839;DHT22;37886;53.174;6.368;2023-07-08T02:55:10;15.00;99.90
51839;DHT22;37886;53.174;6.368;2023-07-08T02:57:36;15.00;99.90
51839;DHT22;37886;53.174;6.368;2023-07-08T03:00:02;15.00;99.90
51839;DHT22;37886;53.174;6.368;2023-07-08T03:02:30;15.00;99.90
51839;DHT22;37886;53.174;6.368;2023-07-08T03:04:55;15.10;99.90
51839;DHT22;37886;53.174;6.368;2023-07-08T03:07:24;15.10;99.90
51839;DHT22;37886;53.174;6.368;2023-07-08T03:09:50;15.10;99.90
51839;DHT22;37886;53.174;6.368;2023-07-08T03:12:16;15.10;99.90
51839;DHT22;37886;53.174;6.368;2023-07-08T03:14:41;15.10;99.90
51839;DHT22;37886;53.174;6.368;2023-07-08T03:17:07;15.10;99.90
51839;DHT22;37886;53.174;6.368;2023-07-08T03:19:33;15.10;99.90
51839;DHT22;37886;53.174;6.368;2023-07-08T03:21:59;15.10;99.90
51839;DHT22;37886;53.174;6.368;2023-07-08T03:24:24;15.10;99.90
51839;DHT22;37886;53.174;6.368;2023-07-08T03:26:50;15.10;99.90
51839;DHT22;37886;53.174;6.368;2023-07-08T03:29:20;15.10;99.90
51839;DHT22;37886;53.174;6.368;2023-07-08T03:31:45;15.10;99.90
51839;DHT22;37886;53.174;6.368;2023-07-08T03:34:12;15.10;99.90
51839;DHT22;37886;53.174;6.368;2023-07-08T03:36:50;15.00;99.90
51839;DHT22;37886;53.174;6.368;2023-07-08T03:39:21;15.10;99.90
51839;DHT22;37886;53.174;6.368;2023-07-08T03:41:48;15.10;99.90
51839;DHT22;37886;53.174;6.368;2023-07-08T03:44:14;15.10;99.90
51839;DHT22;37886;53.174;6.368;2023-07-08T03:46:44;15.10;99.90
51839;DHT22;37886;53.174;6.368;2023-07-08T03:49:11;15.10;99.90
51839;DHT22;37886;53.174;6.368;2023-07-08T03:51:39;15.20;99.90
51839;DHT22;37886;53.174;6.368;2023-07-08T03:54:08;15.20;99.90
51839;DHT22;37886;53.174;6.368;2023-07-08T03:56:35;15.20;99.90
51839;DHT22;37886;53.174;6.368;2023-07-08T03:59:00;15.20;99.90
51839;DHT22;37886;53.174;6.368;2023-07-08T04:01:26;15.20;99.90
51839;DHT22;37886;53.174;6.368;2023-07-08T04:03:54;15.20;99.90
51839;DHT22;37886;53.174;6.368;2023-07-08T04:06:20;15.20;99.90
51839;DHT22;37886;53.174;6.368;2023-07-08T04:08:46;15.30;99.90
51839;DHT22;37886;53.174;6.368;2023-07-08T04:11:14;15.30;99.90
51839;DHT22;37886;53.174;6.368;2023-07-08T04:13:40;15.40;99.90
51839;DHT22;37886;53.174;6.368;2023-07-08T04:16:07;15.40;99.90
51839;DHT22;37886;53.174;6.368;2023-07-08T04:18:34;15.50;99.90
51839;DHT22;37886;53.174;6.368;2023-07-08T04:20:59;15.50;99.90
51839;DHT22;37886;53.174;6.368;2023-07-08T04:23:25;15.50;99.90
51839;DHT22;37886;53.174;6.368;2023-07-08T04:25:53;15.60;99.90
51839;DHT22;37886;53.174;6.368;2023-07-08T04:28:21;15.70;99.90
51839;DHT22;37886;53.174;6.368;2023-07-08T04:30:47;15.80;99.90
51839;DHT22;37886;53.174;6.368;2023-07-08T04:33:14;15.80;99.90
51839;DHT22;37886;53.174;6.368;2023-07-08T04:35:41;15.80;99.90
51839;DHT22;37886;53.174;6.368;2023-07-08T04:38:25;15.80;99.90
51839;DHT22;37886;53.174;6.368;2023-07-08T04:40:52;15.80;99.90
51839;DHT22;37886;53.174;6.368;2023-07-08T04:43:19;15.80;99.90
51839;DHT22;37886;53.174;6.368;2023-07-08T04:45:48;15.90;99.90
51839;DHT22;37886;53.174;6.368;2023-07-08T04:48:17;16.00;99.90
51839;DHT22;37886;53.174;6.368;2023-07-08T04:50:48;16.10;99.90
51839;DHT22;37886;53.174;6.368;2023-07-08T04:53:14;16.10;99.90
51839;DHT22;37886;53.174;6.368;2023-07-08T04:55:43;16.10;99.90
51839;DHT22;37886;53.174;6.368;2023-07-08T04:58:10;16.20;99.90
51839;DHT22;37886;53.174;6.368;2023-07-08T05:00:36;16.30;99.90
51839;DHT22;37886;53.174;6.368;2023-07-08T05:03:02;16.40;99.90
51839;DHT22;37886;53.174;6.368;2023-07-08T05:05:28;16.40;99.90
51839;DHT22;37886;53.174;6.368;2023-07-08T05:07:54;16.50;99.90
51839;DHT22;37886;53.174;6.368;2023-07-08T05:10:20;16.60;99.90
51839;DHT22;37886;53.174;6.368;2023-07-08T05:12:46;16.60;99.90
51839;DHT22;37886;53.174;6.368;2023-07-08T05:15:13;16.70;99.90
51839;DHT22;37886;53.174;6.368;2023-07-08T05:17:40;16.80;99.90
51839;DHT22;37886;53.174;6.368;2023-07-08T05:20:08;16.80;99.90
51839;DHT22;37886;53.174;6.368;2023-07-08T05:22:35;16.90;99.90
51839;DHT22;37886;53.174;6.368;2023-07-08T05:25:01;17.10;99.90
51839;DHT22;37886;53.174;6.368;2023-07-08T05:27:27;17.10;99.90
51839;DHT22;37886;53.174;6.368;2023-07-08T05:29:53;17.10;99.90
51839;DHT22;37886;53.174;6.368;2023-07-08T05:32:19;17.20;99.90
51839;DHT22;37886;53.174;6.368;2023-07-08T05:34:45;17.30;99.90
51839;DHT22;37886;53.174;6.368;2023-07-08T05:37:12;17.40;99.90
51839;DHT22;37886;53.174;6.368;2023-07-08T05:39:38;17.50;99.90
51839;DHT22;37886;53.174;6.368;2023-07-08T05:42:04;17.50;99.90
51839;DHT22;37886;53.174;6.368;2023-07-08T05:44:30;17.60;99.90
51839;DHT22;37886;53.174;6.368;2023-07-08T05:46:56;17.70;99.90
51839;DHT22;37886;53.174;6.368;2023-07-08T05:49:21;17.80;99.90
51839;DHT22;37886;53.174;6.368;2023-07-08T05:51:47;17.90;99.90
51839;DHT22;37886;53.174;6.368;2023-07-08T05:54:13;18.00;99.90
51839;DHT22;37886;53.174;6.368;2023-07-08T05:56:39;18.00;99.90
51839;DHT22;37886;53.174;6.368;2023-07-08T05:59:05;18.10;99.90
51839;DHT22;37886;53.174;6.368;2023-07-08T06:01:31;18.20;99.90
51839;DHT22;37886;53.174;6.368;2023-07-08T06:03:57;18.40;99.90
51839;DHT22;37886;53.174;6.368;2023-07-08T06:06:27;18.50;99.90
51839;DHT22;37886;53.174;6.368;2023-07-08T06:08:53;18.50;99.90
51839;DHT22;37886;53.174;6.368;2023-07-08T06:11:19;18.60;99.90
51839;DHT22;37886;53.174;6.368;2023-07-08T06:13:45;18.70;99.90
51839;DHT22;37886;53.174;6.368;2023-07-08T06:16:11;18.90;99.90
51839;DHT22;37886;53.174;6.368;2023-07-08T06:18:36;19.00;99.90
51839;DHT22;37886;53.174;6.368;2023-07-08T06:21:02;19.00;99.90
51839;DHT22;37886;53.174;6.368;2023-07-08T06:23:29;19.00;99.90
51839;DHT22;37886;53.174;6.368;2023-07-08T06:25:55;19.10;99.90
51839;DHT22;37886;53.174;6.368;2023-07-08T06:28:22;19.20;99.90
51839;DHT22;37886;53.174;6.368;2023-07-08T06:30:48;19.20;99.90
51839;DHT22;37886;53.174;6.368;2023-07-08T06:33:14;19.30;99.90
51839;DHT22;37886;53.174;6.368;2023-07-08T06:35:41;19.40;99.90
51839;DHT22;37886;53.174;6.368;2023-07-08T06:38:07;19.50;99.90
51839;DHT22;37886;53.174;6.368;2023-07-08T06:40:33;19.60;99.90
51839;DHT22;37886;53.174;6.368;2023-07-08T06:42:59;19.70;99.90
51839;DHT22;37886;53.174;6.368;2023-07-08T06:45:25;19.70;99.90
51839;DHT22;37886;53.174;6.368;2023-07-08T06:47:51;19.70;99.90
51839;DHT22;37886;53.174;6.368;2023-07-08T06:50:17;19.80;99.90
51839;DHT22;37886;53.174;6.368;2023-07-08T06:52:42;19.80;99.90
51839;DHT22;37886;53.174;6.368;2023-07-08T06:55:10;20.00;99.90
51839;DHT22;37886;53.174;6.368;2023-07-08T06:57:36;20.10;99.90
51839;DHT22;37886;53.174;6.368;2023-07-08T07:00:08;20.20;99.90
51839;DHT22;37886;53.174;6.368;2023-07-08T07:02:34;20.30;99.90
51839;DHT22;37886;53.174;6.368;2023-07-08T07:05:00;20.30;99.90
51839;DHT22;37886;53.174;6.368;2023-07-08T07:07:29;20.40;99.90
51839;DHT22;37886;53.174;6.368;2023-07-08T07:09:55;20.50;99.90
51839;DHT22;37886;53.174;6.368;2023-07-08T07:12:27;20.50;99.90
51839;DHT22;37886;53.174;6.368;2023-07-08T07:14:53;20.60;99.90
51839;DHT22;37886;53.174;6.368;2023-07-08T07:17:21;20.80;99.90
51839;DHT22;37886;53.174;6.368;2023-07-08T07:19:46;20.80;99.90
51839;DHT22;37886;53.174;6.368;2023-07-08T07:22:13;20.90;99.90
51839;DHT22;37886;53.174;6.368;2023-07-08T07:24:39;21.00;99.90
51839;DHT22;37886;53.174;6.368;2023-07-08T07:27:05;21.20;99.90
51839;DHT22;37886;53.174;6.368;2023-07-08T07:29:49;21.20;99.90
51839;DHT22;37886;53.174;6.368;2023-07-08T07:32:16;21.30;99.90
51839;DHT22;37886;53.174;6.368;2023-07-08T07:34:42;21.40;99.90
51839;DHT22;37886;53.174;6.368;2023-07-08T07:37:13;21.40;99.90
51839;DHT22;37886;53.174;6.368;2023-07-08T07:39:40;21.60;99.90
51839;DHT22;37886;53.174;6.368;2023-07-08T07:42:06;21.70;99.90
51839;DHT22;37886;53.174;6.368;2023-07-08T07:44:32;21.90;99.90
51839;DHT22;37886;53.174;6.368;2023-07-08T07:47:00;22.00;99.90
51839;DHT22;37886;53.174;6.368;2023-07-08T07:49:25;22.20;99.90
51839;DHT22;37886;53.174;6.368;2023-07-08T07:51:51;22.20;99.90
51839;DHT22;37886;53.174;6.368;2023-07-08T07:54:16;22.40;99.90
51839;DHT22;37886;53.174;6.368;2023-07-08T07:56:42;22.40;99.90
51839;DHT22;37886;53.174;6.368;2023-07-08T07:59:08;22.50;99.90
51839;DHT22;37886;53.174;6.368;2023-07-08T08:01:34;22.60;99.90
51839;DHT22;37886;53.174;6.368;2023-07-08T08:03:59;22.70;99.90
51839;DHT22;37886;53.174;6.368;2023-07-08T08:06:25;22.90;99.90
51839;DHT22;37886;53.174;6.368;2023-07-08T08:08:51;23.00;99.90
51839;DHT22;37886;53.174;6.368;2023-07-08T08:11:16;23.20;99.90
51839;DHT22;37886;53.174;6.368;2023-07-08T08:13:42;23.20;99.90
51839;DHT22;37886;53.174;6.368;2023-07-08T08:16:08;23.40;99.90
51839;DHT22;37886;53.174;6.368;2023-07-08T08:18:34;23.50;99.90
51839;DHT22;37886;53.174;6.368;2023-07-08T08:21:00;23.80;99.90
51839;DHT22;37886;53.174;6.368;2023-07-08T08:23:26;24.00;99.90
51839;DHT22;37886;53.174;6.368;2023-07-08T08:25:52;24.20;99.90
51839;DHT22;37886;53.174;6.368;2023-07-08T08:28:18;24.30;99.90
51839;DHT22;37886;53.174;6.368;2023-07-08T08:30:48;24.50;99.90
51839;DHT22;37886;53.174;6.368;2023-07-08T08:33:18;24.80;99.90
51839;DHT22;37886;53.174;6.368;2023-07-08T08:35:44;25.00;99.90
51839;DHT22;37886;53.174;6.368;2023-07-08T08:38:10;25.30;99.90
51839;DHT22;37886;53.174;6.368;2023-07-08T08:40:36;25.40;99.90
51839;DHT22;37886;53.174;6.368;2023-07-08T08:43:22;25.40;99.90
51839;DHT22;37886;53.174;6.368;2023-07-08T08:46:00;25.70;99.90
51839;DHT22;37886;53.174;6.368;2023-07-08T08:48:27;25.80;99.90
51839;DHT22;37886;53.174;6.368;2023-07-08T08:51:02;25.80;99.90
51839;DHT22;37886;53.174;6.368;2023-07-08T08:53:30;26.00;99.90
51839;DHT22;37886;53.174;6.368;2023-07-08T08:56:26;26.00;99.90
51839;DHT22;37886;53.174;6.368;2023-07-08T09:01:34;26.10;99.90
51839;DHT22;37886;53.174;6.368;2023-07-08T09:06:31;26.10;99.90
51839;DHT22;37886;53.174;6.368;2023-07-08T09:09:02;26.10;99.90
51839;DHT22;37886;53.174;6.368;2023-07-08T09:14:24;26.30;99.90
51839;DHT22;37886;53.174;6.368;2023-07-08T09:17:25;26.30;99.90
51839;DHT22;37886;53.174;6.368;2023-07-08T09:20:27;26.30;99.90
51839;DHT22;37886;53.174;6.368;2023-07-08T09:25:59;26.50;99.90
51839;DHT22;37886;53.174;6.368;2023-07-08T09:28:39;26.50;99.90
51839;DHT22;37886;53.174;6.368;2023-07-08T09:31:08;26.60;99.90
51839;DHT22;37886;53.174;6.368;2023-07-08T09:33:37;26.60;99.90
51839;DHT22;37886;53.174;6.368;2023-07-08T09:36:16;26.80;99.90
51839;DHT22;37886;53.174;6.368;2023-07-08T09:38:46;26.90;99.90
51839;DHT22;37886;53.174;6.368;2023-07-08T09:41:12;26.90;99.90
51839;DHT22;37886;53.174;6.368;2023-07-08T09:43:38;26.90;99.90
51839;DHT22;37886;53.174;6.368;2023-07-08T09:46:04;27.20;99.90
51839;DHT22;37886;53.174;6.368;2023-07-08T09:48:35;27.20;99.90
51839;DHT22;37886;53.174;6.368;2023-07-08T09:51:01;27.20;99.90
51839;DHT22;37886;53.174;6.368;2023-07-08T09:53:28;27.20;99.90
51839;DHT22;37886;53.174;6.368;2023-07-08T09:55:56;27.40;99.90
51839;DHT22;37886;53.174;6.368;2023-07-08T10:00:55;27.60;99.90
51839;DHT22;37886;53.174;6.368;2023-07-08T10:03:23;27.70;99.90
51839;DHT22;37886;53.174;6.368;2023-07-08T10:05:51;27.90;99.90
51839;DHT22;37886;53.174;6.368;2023-07-08T10:08:20;28.00;99.90
51839;DHT22;37886;53.174;6.368;2023-07-08T10:10:50;28.10;99.90
51839;DHT22;37886;53.174;6.368;2023-07-08T10:13:41;28.30;99.80
51839;DHT22;37886;53.174;6.368;2023-07-08T10:16:28;28.40;99.90
51839;DHT22;37886;53.174;6.368;2023-07-08T10:18:54;28.70;99.80
51839;DHT22;37886;53.174;6.368;2023-07-08T10:21:48;28.80;97.70
51839;DHT22;37886;53.174;6.368;2023-07-08T10:26:44;29.30;98.60
51839;DHT22;37886;53.174;6.368;2023-07-08T10:45:31;30.60;96.40
51839;DHT22;37886;53.174;6.368;2023-07-08T11:07:16;31.70;93.30
51839;DHT22;37886;53.174;6.368;2023-07-08T11:09:52;32.00;93.90
51839;DHT22;37886;53.174;6.368;2023-07-08T11:21:07;32.60;93.30
51839;DHT22;37886;53.174;6.368;2023-07-08T11:23:46;32.70;92.00
51839;DHT22;37886;53.174;6.368;2023-07-08T11:28:50;32.80;91.90
51839;DHT22;37886;53.174;6.368;2023-07-08T11:31:18;32.80;91.50
51839;DHT22;37886;53.174;6.368;2023-07-08T11:33:46;33.10;92.20
51839;DHT22;37886;53.174;6.368;2023-07-08T11:36:13;33.50;91.10
51839;DHT22;37886;53.174;6.368;2023-07-08T11:38:50;33.50;91.40
51839;DHT22;37886;53.174;6.368;2023-07-08T11:41:27;33.50;90.20
51839;DHT22;37886;53.174;6.368;2023-07-08T11:43:58;33.70;90.70
51839;DHT22;37886;53.174;6.368;2023-07-08T11:46:27;33.60;90.70
51839;DHT22;37886;53.174;6.368;2023-07-08T11:49:02;33.60;90.70
51839;DHT22;37886;53.174;6.368;2023-07-08T11:51:38;33.80;90.00
51839;DHT22;37886;53.174;6.368;2023-07-08T11:54:26;33.90;90.80
51839;DHT22;37886;53.174;6.368;2023-07-08T11:57:23;34.00;91.10
51839;DHT22;37886;53.174;6.368;2023-07-08T12:05:14;34.30;87.30
51839;DHT22;37886;53.174;6.368;2023-07-08T12:07:44;34.20;88.50
51839;DHT22;37886;53.174;6.368;2023-07-08T12:10:20;34.60;89.80
51839;DHT22;37886;53.174;6.368;2023-07-08T12:12:48;34.90;88.90
51839;DHT22;37886;53.174;6.368;2023-07-08T12:17:46;35.40;86.30
51839;DHT22;37886;53.174;6.368;2023-07-08T12:20:29;35.30;87.00
51839;DHT22;37886;53.174;6.368;2023-07-08T12:22:55;34.70;84.80
51839;DHT22;37886;53.174;6.368;2023-07-08T12:25:26;34.30;85.50
51839;DHT22;37886;53.174;6.368;2023-07-08T12:27:52;34.50;85.90
51839;DHT22;37886;53.174;6.368;2023-07-08T12:30:18;34.30;86.50
51839;DHT22;37886;53.174;6.368;2023-07-08T12:32:44;34.20;86.10
51839;DHT22;37886;53.174;6.368;2023-07-08T12:35:32;34.70;84.30
51839;DHT22;37886;53.174;6.368;2023-07-08T12:38:01;35.00;85.40
51839;DHT22;37886;53.174;6.368;2023-07-08T12:40:29;35.00;84.40
51839;DHT22;37886;53.174;6.368;2023-07-08T12:42:57;34.90;84.80
51839;DHT22;37886;53.174;6.368;2023-07-08T12:45:25;34.90;82.70
51839;DHT22;37886;53.174;6.368;2023-07-08T12:47:52;34.90;84.10
51839;DHT22;37886;53.174;6.368;2023-07-08T12:50:17;35.00;83.90
51839;DHT22;37886;53.174;6.368;2023-07-08T12:52:45;35.20;82.40
51839;DHT22;37886;53.174;6.368;2023-07-08T12:55:13;35.30;82.20
51839;DHT22;37886;53.174;6.368;2023-07-08T12:57:44;35.60;84.60
51839;DHT22;37886;53.174;6.368;2023-07-08T13:00:33;35.70;84.50
51839;DHT22;37886;53.174;6.368;2023-07-08T13:03:15;35.70;80.20
51839;DHT22;37886;53.174;6.368;2023-07-08T13:05:43;35.70;81.90
51839;DHT22;37886;53.174;6.368;2023-07-08T13:08:14;35.40;82.00
51839;DHT22;37886;53.174;6.368;2023-07-08T13:10:41;36.00;82.30
51839;DHT22;37886;53.174;6.368;2023-07-08T13:13:18;36.00;81.10
51839;DHT22;37886;53.174;6.368;2023-07-08T13:15:45;35.90;79.60
51839;DHT22;37886;53.174;6.368;2023-07-08T13:18:14;36.00;81.70
51839;DHT22;37886;53.174;6.368;2023-07-08T13:20:42;35.80;81.30
51839;DHT22;37886;53.174;6.368;2023-07-08T13:23:08;35.90;79.80
51839;DHT22;37886;53.174;6.368;2023-07-08T13:25:37;35.90;78.70
51839;DHT22;37886;53.174;6.368;2023-07-08T13:28:19;35.90;79.20
51839;DHT22;37886;53.174;6.368;2023-07-08T13:31:02;36.00;78.40
51839;DHT22;37886;53.174;6.368;2023-07-08T13:33:33;36.20;79.70
51839;DHT22;37886;53.174;6.368;2023-07-08T13:36:04;36.40;79.40
51839;DHT22;37886;53.174;6.368;2023-07-08T13:38:38;36.40;77.60
51839;DHT22;37886;53.174;6.368;2023-07-08T13:41:06;36.40;78.20
51839;DHT22;37886;53.174;6.368;2023-07-08T13:43:34;36.30;78.40
51839;DHT22;37886;53.174;6.368;2023-07-08T13:46:01;36.30;78.50
51839;DHT22;37886;53.174;6.368;2023-07-08T13:48:37;36.40;76.60
51839;DHT22;37886;53.174;6.368;2023-07-08T13:51:22;36.30;77.80
51839;DHT22;37886;53.174;6.368;2023-07-08T13:53:51;36.20;76.00
51839;DHT22;37886;53.174;6.368;2023-07-08T13:56:19;36.40;77.80
51839;DHT22;37886;53.174;6.368;2023-07-08T13:58:50;36.70;77.40
51839;DHT22;37886;53.174;6.368;2023-07-08T14:01:24;36.70;75.40
51839;DHT22;37886;53.174;6.368;2023-07-08T14:03:52;36.60;75.60
51839;DHT22;37886;53.174;6.368;2023-07-08T14:06:24;36.50;77.20
51839;DHT22;37886;53.174;6.368;2023-07-08T14:08:56;36.70;78.90
51839;DHT22;37886;53.174;6.368;2023-07-08T14:11:22;36.80;76.80
51839;DHT22;37886;53.174;6.368;2023-07-08T14:13:48;36.90;75.50
51839;DHT22;37886;53.174;6.368;2023-07-08T14:16:31;36.80;73.00
51839;DHT22;37886;53.174;6.368;2023-07-08T14:19:01;37.00;78.50
51839;DHT22;37886;53.174;6.368;2023-07-08T14:21:32;37.20;73.20
51839;DHT22;37886;53.174;6.368;2023-07-08T14:23:58;37.10;73.80
51839;DHT22;37886;53.174;6.368;2023-07-08T14:26:28;37.10;74.90
51839;DHT22;37886;53.174;6.368;2023-07-08T14:28:55;37.20;74.90
51839;DHT22;37886;53.174;6.368;2023-07-08T14:31:24;37.10;75.40
51839;DHT22;37886;53.174;6.368;2023-07-08T14:34:00;37.00;73.20
51839;DHT22;37886;53.174;6.368;2023-07-08T14:36:28;37.00;75.20
51839;DHT22;37886;53.174;6.368;2023-07-08T14:38:53;37.20;73.10
51839;DHT22;37886;53.174;6.368;2023-07-08T14:41:19;37.80;73.20
51839;DHT22;37886;53.174;6.368;2023-07-08T14:43:45;37.90;72.70
51839;DHT22;37886;53.174;6.368;2023-07-08T14:46:10;37.60;73.10
51839;DHT22;37886;53.174;6.368;2023-07-08T14:48:36;37.90;74.00
51839;DHT22;37886;53.174;6.368;2023-07-08T14:51:02;37.80;72.30
51839;DHT22;37886;53.174;6.368;2023-07-08T14:53:28;38.10;69.50
51839;DHT22;37886;53.174;6.368;2023-07-08T14:55:55;37.80;69.20
51839;DHT22;37886;53.174;6.368;2023-07-08T14:58:33;37.70;68.90
51839;DHT22;37886;53.174;6.368;2023-07-08T15:01:09;37.60;69.60
51839;DHT22;37886;53.174;6.368;2023-07-08T15:03:36;37.60;68.80
51839;DHT22;37886;53.174;6.368;2023-07-08T15:06:02;37.60;68.70
51839;DHT22;37886;53.174;6.368;2023-07-08T15:08:28;37.60;69.00
51839;DHT22;37886;53.174;6.368;2023-07-08T15:10:54;37.90;68.80
51839;DHT22;37886;53.174;6.368;2023-07-08T15:13:21;38.10;68.50
51839;DHT22;37886;53.174;6.368;2023-07-08T15:15:50;38.10;68.90
51839;DHT22;37886;53.174;6.368;2023-07-08T15:18:17;38.10;65.90
51839;DHT22;37886;53.174;6.368;2023-07-08T15:20:44;37.90;66.20
51839;DHT22;37886;53.174;6.368;2023-07-08T15:23:10;38.00;65.80
51839;DHT22;37886;53.174;6.368;2023-07-08T15:25:43;38.10;67.30
51839;DHT22;37886;53.174;6.368;2023-07-08T15:28:18;38.10;66.90
51839;DHT22;37886;53.174;6.368;2023-07-08T15:30:45;37.80;66.60
51839;DHT22;37886;53.174;6.368;2023-07-08T15:33:15;38.40;67.30
51839;DHT22;37886;53.174;6.368;2023-07-08T15:35:41;38.50;67.50
51839;DHT22;37886;53.174;6.368;2023-07-08T15:38:07;39.00;65.90
51839;DHT22;37886;53.174;6.368;2023-07-08T15:40:34;38.70;65.30
51839;DHT22;37886;53.174;6.368;2023-07-08T15:43:02;38.60;65.70
51839;DHT22;37886;53.174;6.368;2023-07-08T15:45:32;38.30;66.00
51839;DHT22;37886;53.174;6.368;2023-07-08T15:47:58;38.00;66.00
51839;DHT22;37886;53.174;6.368;2023-07-08T15:50:27;38.10;67.20
51839;DHT22;37886;53.174;6.368;2023-07-08T15:52:54;38.30;66.60
51839;DHT22;37886;53.174;6.368;2023-07-08T15:55:35;38.20;65.80
51839;DHT22;37886;53.174;6.368;2023-07-08T15:58:35;38.80;65.60
51839;DHT22;37886;53.174;6.368;2023-07-08T16:01:02;38.90;66.30
51839;DHT22;37886;53.174;6.368;2023-07-08T16:03:32;39.60;63.90
51839;DHT22;37886;53.174;6.368;2023-07-08T16:06:00;39.30;63.90
51839;DHT22;37886;53.174;6.368;2023-07-08T16:08:26;38.50;64.40
51839;DHT22;37886;53.174;6.368;2023-07-08T16:10:57;38.50;65.80
51839;DHT22;37886;53.174;6.368;2023-07-08T16:13:26;38.50;66.40
51839;DHT22;37886;53.174;6.368;2023-07-08T16:15:53;39.00;66.40
51839;DHT22;37886;53.174;6.368;2023-07-08T16:18:19;38.70;66.80
51839;DHT22;37886;53.174;6.368;2023-07-08T16:20:46;38.60;66.40
51839;DHT22;37886;53.174;6.368;2023-07-08T16:23:12;38.10;65.10
51839;DHT22;37886;53.174;6.368;2023-07-08T16:25:42;38.40;66.70
51839;DHT22;37886;53.174;6.368;2023-07-08T16:28:29;37.90;65.50
51839;DHT22;37886;53.174;6.368;2023-07-08T16:30:56;37.80;65.90
51839;DHT22;37886;53.174;6.368;2023-07-08T16:33:23;37.60;66.20
51839;DHT22;37886;53.174;6.368;2023-07-08T16:35:49;37.80;65.80
51839;DHT22;37886;53.174;6.368;2023-07-08T16:38:15;37.70;65.80
51839;DHT22;37886;53.174;6.368;2023-07-08T16:40:41;37.60;65.60
51839;DHT22;37886;53.174;6.368;2023-07-08T16:45:46;37.60;66.00
51839;DHT22;37886;53.174;6.368;2023-07-08T16:48:15;37.70;66.00
51839;DHT22;37886;53.174;6.368;2023-07-08T16:50:41;38.00;66.80
51839;DHT22;37886;53.174;6.368;2023-07-08T16:53:11;37.90;66.40
51839;DHT22;37886;53.174;6.368;2023-07-08T16:55:37;37.80;68.40
51839;DHT22;37886;53.174;6.368;2023-07-08T16:58:03;37.40;66.90